Time;durP1;ratioP1;P1;durP2;ratioP2;P2;SDS_P1;SDS_P2;PMS_P1;PMS_P2;Temp;Humidity;BMP_temperature;BMP_pressure;BME280_temperature;BME280_humidity;BME280_pressure;Samples;Min_cycle;Max_cycle;Signal;HPM_P1;HPM_P2
2021/06/14 00:00:08;;;;;;;2.65;0.55;;;;;;;15.70;68.04;99742.20;1664581;85;21061;-71
2021/06/14 00:02:38;;;;;;;1.95;0.30;;;;;;;15.70;68.90;99745.42;1653348;85;21193;-76
2021/06/14 00:05:09;;;;;;;1.07;0.65;;;;;;;15.63;69.19;99748.22;1666259;85;21034;-78
2021/06/14 00:07:35;;;;;;;2.37;1.12;;;;;;;15.56;68.00;99755.61;1603403;88;21083;-77
2021/06/14 00:10:08;;;;;;;0.85;0.75;;;;;;;15.54;68.44;99748.31;1655063;85;21063;-76
2021/06/14 00:12:35;;;;;;;1.75;0.62;;;;;;;15.56;69.12;99759.64;1614710;88;21093;-77
2021/06/14 00:15:06;;;;;;;0.40;0.40;;;;;;;15.56;68.87;99747.55;1606186;88;21082;-78
2021/06/14 00:17:32;;;;;;;0.55;0.47;;;;;;;15.54;68.93;99744.29;1640656;86;21033;-77
2021/06/14 00:19:59;;;;;;;0.98;0.70;;;;;;;15.33;68.68;99711.61;1636655;86;21075;-78
2021/06/14 00:22:25;;;;;;;0.55;0.53;;;;;;;15.48;69.20;99743.36;1616961;85;21037;-76
2021/06/14 00:24:52;;;;;;;0.75;0.50;;;;;;;15.44;68.74;99752.10;1661935;85;21052;-77
2021/06/14 00:27:17;;;;;;;;;;;;;;;15.44;69.25;99754.25;1659412;85;21001;-77
2021/06/14 00:29:43;;;;;;;0.90;0.85;;;;;;;15.51;69.67;99752.80;1661726;85;20135;-79
2021/06/14 00:32:09;;;;;;;0.55;0.30;;;;;;;15.47;70.04;99744.40;1662897;85;20950;-76
2021/06/14 00:34:35;;;;;;;5.83;0.55;;;;;;;15.45;69.38;99738.98;1664278;85;21087;-77
2021/06/14 00:37:02;;;;;;;1.32;0.47;;;;;;;15.42;70.12;99742.94;1649613;85;21088;-75
2021/06/14 00:39:29;;;;;;;1.47;0.55;;;;;;;15.37;70.20;99750.90;1666952;85;21080;-76
2021/06/14 00:41:56;;;;;;;2.10;0.40;;;;;;;15.32;70.13;99746.21;1659085;85;21096;-76
2021/06/14 00:44:22;;;;;;;;;;;;;;;15.33;70.27;99745.17;1665789;85;21013;-78
2021/06/14 00:46:49;;;;;;;1.35;0.40;;;;;;;15.34;70.32;99746.80;1642143;85;20137;-76
2021/06/14 00:49:15;;;;;;;;;;;;;;;15.35;69.73;99749.78;1664663;85;21052;-76
2021/06/14 00:51:41;;;;;;;1.37;0.50;;;;;;;15.38;70.09;99742.58;1656396;85;20217;-75
2021/06/14 00:54:09;;;;;;;1.02;0.72;;;;;;;15.35;69.47;99752.47;1640135;85;21080;-75
2021/06/14 00:56:35;;;;;;;1.32;0.40;;;;;;;15.33;70.17;99751.89;1643628;85;21076;-76
2021/06/14 00:59:02;;;;;;;0.82;0.50;;;;;;;15.32;70.09;99753.45;1656588;85;21027;-76
2021/06/14 01:01:29;;;;;;;0.45;0.30;;;;;;;15.30;70.55;99753.69;1657383;85;21045;-77
2021/06/14 01:03:56;;;;;;;3.05;0.50;;;;;;;15.30;70.32;99742.14;1665482;85;21057;-77
2021/06/14 01:06:22;;;;;;;0.57;0.50;;;;;;;15.32;69.53;99746.21;1662755;85;20988;-76
2021/06/14 01:08:52;;;;;;;1.75;0.40;;;;;;;15.38;68.81;99743.12;1669130;85;21566;-77
2021/06/14 01:11:30;;;;;;;1.25;0.40;;;;;;;15.41;69.91;99744.00;1659312;85;20981;-76
2021/06/14 01:14:12;;;;;;;1.85;0.40;;;;;;;15.44;69.26;99741.36;1675341;85;21492;-76
2021/06/14 01:17:01;;;;;;;2.42;0.23;;;;;;;15.52;69.24;99740.99;1669886;85;21028;-75
2021/06/14 01:19:52;;;;;;;0.30;0.30;;;;;;;15.60;68.80;99743.34;1663944;85;21071;-74
2021/06/14 01:23:07;;;;;;;2.05;0.85;;;;;;;15.61;68.65;99747.64;1689802;84;21209;-74
2021/06/14 01:25:56;;;;;;;0.50;0.50;;;;;;;15.58;68.24;99750.28;1682677;85;21505;-74
2021/06/14 01:28:26;;;;;;;0.72;0.30;;;;;;;15.54;68.98;99751.00;1681311;85;21214;-74
2021/06/14 01:30:54;;;;;;;3.02;0.40;;;;;;;15.55;68.51;99740.53;1678965;85;21150;-74
2021/06/14 01:33:27;;;;;;;0.33;0.33;;;;;;;15.59;68.83;99747.06;1679385;83;21481;-74
2021/06/14 01:36:11;;;;;;;0.80;0.42;;;;;;;15.61;68.93;99746.30;1643869;85;21110;-75
2021/06/14 01:38:42;;;;;;;1.57;0.70;;;;;;;15.55;68.60;99745.38;1662839;85;21527;-74
2021/06/14 01:41:12;;;;;;;1.52;0.55;;;;;;;15.52;68.41;99743.17;1663196;85;22237;-74
2021/06/14 01:43:42;;;;;;;0.72;0.47;;;;;;;15.54;68.58;99746.44;1644832;86;21022;-75
2021/06/14 01:46:22;;;;;;;2.08;0.70;;;;;;;15.63;69.03;99746.88;1656153;85;20993;-75
2021/06/14 01:48:52;;;;;;;0.62;0.62;;;;;;;15.68;68.58;99756.93;1655970;85;21084;-73
2021/06/14 01:51:29;;;;;;;5.10;0.47;;;;;;;15.62;68.56;99750.63;1656358;85;22389;-75
2021/06/14 01:54:07;;;;;;;0.50;0.47;;;;;;;15.55;68.56;99770.08;1655978;85;21082;-74
2021/06/14 01:56:49;;;;;;;0.98;0.68;;;;;;;15.47;69.54;99771.25;1662947;85;21013;-76
2021/06/14 01:59:33;;;;;;;1.72;0.40;;;;;;;15.47;69.44;99771.79;1605879;88;20999;-75
2021/06/14 02:02:05;;;;;;;2.08;0.23;;;;;;;15.46;69.51;99774.98;1605717;87;21053;-76
2021/06/14 02:04:35;;;;;;;1.57;0.30;;;;;;;15.47;69.64;99780.66;1634278;85;21011;-75
2021/06/14 02:07:11;;;;;;;0.40;0.40;;;;;;;15.40;70.20;99793.91;1632303;86;21583;-75
2021/06/14 02:09:38;;;;;;;3.22;1.00;;;;;;;15.32;70.67;99782.46;1634814;86;21028;-76
2021/06/14 02:12:08;;;;;;;0.50;0.50;;;;;;;15.33;70.06;99787.30;1646168;86;21018;-75
2021/06/14 02:14:39;;;;;;;2.12;0.57;;;;;;;15.38;69.87;99784.20;1649255;87;21088;-74
2021/06/14 02:17:18;;;;;;;1.60;0.75;;;;;;;15.40;70.42;99789.88;1647658;87;20998;-76
2021/06/14 02:19:48;;;;;;;1.40;0.45;;;;;;;15.38;69.92;99790.92;1648669;87;21038;-75
2021/06/14 02:22:17;;;;;;;0.65;0.60;;;;;;;15.40;70.23;99796.59;1638834;87;21558;-75
2021/06/14 02:24:44;;;;;;;0.65;0.50;;;;;;;15.43;70.39;99794.80;1621282;86;21121;-77
2021/06/14 02:27:14;;;;;;;1.37;0.40;;;;;;;15.37;70.67;99794.67;1649241;85;21085;-75
2021/06/14 02:29:43;;;;;;;0.55;0.40;;;;;;;15.37;70.28;99791.17;1648769;85;21108;-75
2021/06/14 02:32:10;;;;;;;0.70;0.62;;;;;;;15.34;70.55;99795.13;1648948;85;21554;-76
2021/06/14 02:34:39;;;;;;;2.60;0.70;;;;;;;15.34;70.12;99783.04;1653453;85;21396;-76
2021/06/14 02:37:08;;;;;;;0.62;0.62;;;;;;;15.37;70.17;99790.64;1649437;86;21150;-76
2021/06/14 02:39:36;;;;;;;1.15;0.57;;;;;;;15.36;70.34;99791.68;1655297;86;21058;-76
2021/06/14 02:42:04;;;;;;;1.12;0.60;;;;;;;15.35;70.66;99798.62;1642439;86;21094;-75
2021/06/14 02:44:33;;;;;;;0.53;0.53;;;;;;;15.38;70.35;99795.48;1637129;85;21583;-75
2021/06/14 02:47:08;;;;;;;0.62;0.62;;;;;;;15.42;70.54;99794.49;1645880;85;21064;-75
2021/06/14 02:49:36;;;;;;;1.87;0.70;;;;;;;15.47;70.35;99806.70;1642468;85;21054;-75
2021/06/14 02:52:08;;;;;;;0.57;0.57;;;;;;;15.48;70.24;99798.92;1637299;85;21083;-76
2021/06/14 02:54:38;;;;;;;0.98;0.72;;;;;;;15.53;70.14;99807.10;1608859;87;21106;-76
2021/06/14 02:57:12;;;;;;;1.15;1.02;;;;;;;15.57;70.03;99813.11;1601010;88;21035;-76
2021/06/14 02:59:41;;;;;;;1.15;1.05;;;;;;;15.61;69.80;99813.98;1644863;85;20986;-76
2021/06/14 03:02:08;;;;;;;0.82;0.82;;;;;;;15.65;69.41;99811.96;1639822;86;21117;-75
2021/06/14 03:04:35;;;;;;;3.02;0.90;;;;;;;15.74;68.97;99815.12;1646232;87;21014;-75
2021/06/14 03:07:03;;;;;;;0.65;0.65;;;;;;;15.85;68.68;99815.63;1640244;87;20994;-76
2021/06/14 03:09:33;;;;;;;2.05;1.30;;;;;;;15.71;68.51;99787.37;1636661;87;21092;-78
2021/06/14 03:12:02;;;;;;;0.80;0.80;;;;;;;15.88;68.72;99819.20;1619952;85;21111;-77
2021/06/14 03:14:30;;;;;;;2.08;0.98;;;;;;;15.79;69.13;99822.49;1610852;87;21070;-78
2021/06/14 03:16:57;;;;;;;1.40;0.90;;;;;;;15.73;69.26;99826.40;1623756;86;21658;-78
2021/06/14 03:19:25;;;;;;;3.60;1.02;;;;;;;15.74;69.49;99823.98;1639113;86;21581;-78
2021/06/14 03:21:53;;;;;;;1.40;1.20;;;;;;;15.76;69.41;99817.05;1640799;85;21087;-77
2021/06/14 03:24:21;;;;;;;1.02;0.82;;;;;;;15.80;69.21;99825.45;1641937;87;21109;-77
2021/06/14 03:26:48;;;;;;;2.90;1.10;;;;;;;15.84;69.35;99831.98;1644501;87;21105;-77
2021/06/14 03:29:19;;;;;;;1.25;1.25;;;;;;;15.88;69.16;99829.11;1646061;87;21083;-78
2021/06/14 03:31:49;;;;;;;1.57;0.88;;;;;;;15.82;69.32;99833.56;1646744;87;20986;-77
2021/06/14 03:34:20;;;;;;;0.78;0.78;;;;;;;15.81;69.66;99837.85;1663306;84;21081;-77
2021/06/14 03:36:47;;;;;;;1.98;0.70;;;;;;;15.85;69.80;99839.02;1647511;85;21116;-77
2021/06/14 03:39:18;;;;;;;1.40;1.30;;;;;;;15.85;69.63;99843.05;1677324;84;21037;-78
2021/06/14 03:41:50;;;;;;;1.77;1.45;;;;;;;15.85;69.58;99834.45;1674352;84;21057;-78
2021/06/14 03:44:20;;;;;;;0.75;0.75;;;;;;;15.85;69.61;99843.85;1675557;84;21005;-76
2021/06/14 03:46:48;;;;;;;2.83;0.78;;;;;;;15.83;69.80;99842.46;1639584;85;21519;-77
2021/06/14 03:49:15;;;;;;;1.02;0.90;;;;;;;15.87;69.64;99835.02;1618841;87;21066;-77
2021/06/14 03:51:43;;;;;;;4.53;0.80;;;;;;;15.91;69.44;99843.44;1645748;85;21113;-77
2021/06/14 03:54:11;;;;;;;1.67;0.78;;;;;;;15.95;69.58;99840.56;1647868;85;21161;-77
2021/06/14 03:56:37;;;;;;;0.85;0.80;;;;;;;15.99;69.05;99842.26;1649309;85;21007;-78
2021/06/14 03:59:04;;;;;;;1.20;1.10;;;;;;;16.00;69.20;99839.88;1649651;85;21070;-78
2021/06/14 04:01:31;;;;;;;1.82;1.45;;;;;;;16.01;69.54;99841.49;1642661;85;21022;-77
2021/06/14 04:06:24;;;;;;;0.85;0.72;;;;;;;16.29;68.99;99843.42;1677277;84;21669;-77
2021/06/14 04:08:51;;;;;;;1.02;1.00;;;;;;;16.41;68.74;99844.22;1658218;84;21198;-78
2021/06/14 04:11:17;;;;;;;5.75;1.40;;;;;;;16.48;68.28;99842.72;1676568;84;21045;-78
2021/06/14 04:13:46;;;;;;;1.17;1.10;;;;;;;16.63;67.90;99846.23;1674769;84;21368;-77
2021/06/14 04:16:12;;;;;;;1.20;1.07;;;;;;;16.82;67.06;99849.55;1597727;87;21082;-79
2021/06/14 04:18:38;;;;;;;;;;;;;;;17.19;65.93;99854.00;1608920;88;21124;-78
2021/06/14 04:21:05;;;;;;;2.52;1.50;;;;;;;17.54;64.09;99854.81;1614434;87;20150;-79
2021/06/14 04:23:31;;;;;;;1.70;1.20;;;;;;;17.66;63.48;99859.59;1611484;87;20983;-78
2021/06/14 04:25:57;;;;;;;1.12;0.90;;;;;;;18.05;62.52;99852.36;1604128;88;21064;-79
2021/06/14 04:28:23;;;;;;;1.50;0.62;;;;;;;18.73;60.97;99863.42;1615471;88;21631;-78
2021/06/14 04:30:49;;;;;;;;;;;;;;;19.48;58.94;99853.59;1637003;85;21046;-77
2021/06/14 04:33:15;;;;;;;1.50;1.10;;;;;;;20.22;57.01;99854.59;1676628;84;20424;-76
2021/06/14 04:35:42;;;;;;;0.95;0.82;;;;;;;20.88;55.34;99855.90;1661468;84;21607;-78
2021/06/14 04:38:08;;;;;;;0.40;0.40;;;;;;;21.59;52.91;99868.70;1655397;86;21582;-79
2021/06/14 04:40:36;;;;;;;2.47;1.07;;;;;;;22.15;51.80;99860.43;1654317;86;21575;-78
2021/06/14 04:43:02;;;;;;;3.22;0.75;;;;;;;22.60;49.60;99864.59;1657747;86;21042;-77
2021/06/14 04:45:28;;;;;;;;;;;;;;;22.86;49.05;99857.10;1656064;85;21035;-79
2021/06/14 04:47:54;;;;;;;2.47;0.42;;;;;;;22.85;48.77;99869.08;1654935;85;20124;-79
2021/06/14 04:50:20;;;;;;;;;;;;;;;22.86;49.18;99873.96;1662655;85;21006;-79
2021/06/14 04:52:46;;;;;;;2.35;1.25;;;;;;;22.99;48.64;99871.97;1659975;85;20111;-80
2021/06/14 04:55:13;;;;;;;;;;;;;;;22.64;49.02;99881.98;1661562;85;20998;-79
2021/06/14 04:57:39;;;;;;;2.58;0.72;;;;;;;22.37;49.47;99877.48;1645345;85;20453;-78
2021/06/14 05:00:08;;;;;;;0.85;0.30;;;;;;;22.06;50.29;99872.13;1657969;85;21895;-79
2021/06/14 05:02:35;;;;;;;2.58;0.30;;;;;;;21.81;50.81;99889.27;1650316;85;21505;-79
2021/06/14 05:05:02;;;;;;;1.12;0.70;;;;;;;21.65;51.74;99890.65;1657175;85;21161;-78
2021/06/14 05:07:28;;;;;;;1.98;0.30;;;;;;;21.60;51.61;99899.33;1654836;86;20982;-80
2021/06/14 05:09:56;;;;;;;2.77;0.70;;;;;;;21.50;51.81;99902.86;1647412;86;21089;-81
2021/06/14 05:12:23;;;;;;;0.45;0.40;;;;;;;21.22;52.54;99896.85;1659684;85;21101;-79
2021/06/14 05:14:49;;;;;;;1.52;0.88;;;;;;;20.99;53.36;99899.53;1659255;86;21062;-80
2021/06/14 05:17:17;;;;;;;1.00;0.90;;;;;;;20.76;53.93;99911.13;1632357;86;21086;-80
2021/06/14 05:19:45;;;;;;;1.42;0.53;;;;;;;20.68;54.41;99904.88;1594017;89;20990;-78
2021/06/14 05:22:13;;;;;;;0.70;0.70;;;;;;;20.57;54.74;99901.28;1613385;86;21039;-80
2021/06/14 05:24:39;;;;;;;1.05;0.55;;;;;;;20.52;55.14;99913.98;1613088;88;20947;-81
2021/06/14 05:27:07;;;;;;;1.62;0.90;;;;;;;20.54;55.25;99911.28;1614601;87;21099;-80
2021/06/14 05:29:33;;;;;;;1.05;0.62;;;;;;;20.54;55.18;99914.54;1631281;86;21031;-82
2021/06/14 05:32:00;;;;;;;0.60;0.60;;;;;;;20.47;55.53;99918.83;1634007;86;21055;-81
2021/06/14 05:34:26;;;;;;;2.30;0.72;;;;;;;20.46;56.02;99919.12;1638115;86;21075;-80
2021/06/14 05:36:53;;;;;;;3.50;1.05;;;;;;;20.56;55.87;99909.13;1624963;86;21018;-81
2021/06/14 05:39:19;;;;;;;0.95;0.80;;;;;;;20.65;55.86;99904.60;1622005;86;21053;-82
2021/06/14 05:41:45;;;;;;;3.50;1.00;;;;;;;20.70;55.98;99911.36;1626331;86;21152;-82
2021/06/14 05:44:12;;;;;;;0.82;0.82;;;;;;;20.82;55.48;99902.48;1654700;84;21032;-83
2021/06/14 05:46:38;;;;;;;1.35;0.95;;;;;;;20.74;55.96;99905.72;1663790;84;21024;-80
2021/06/14 05:49:05;;;;;;;0.75;0.72;;;;;;;20.85;55.67;99918.20;1665899;84;21032;-81
2021/06/14 05:51:31;;;;;;;2.52;0.88;;;;;;;21.16;55.44;99912.84;1658041;84;21075;-82
2021/06/14 05:53:58;;;;;;;2.05;1.30;;;;;;;21.52;54.86;99912.34;1655589;84;21115;-82
2021/06/14 05:56:25;;;;;;;1.35;0.95;;;;;;;21.70;54.36;99909.64;1653287;84;21110;-82
2021/06/14 05:58:51;;;;;;;1.07;1.00;;;;;;;21.72;54.47;99912.08;1661064;85;21650;-80
2021/06/14 06:01:18;;;;;;;1.50;0.93;;;;;;;21.98;54.12;99918.26;1650498;85;21087;-80
2021/06/14 06:03:45;;;;;;;1.40;1.20;;;;;;;22.40;53.26;99921.19;1658358;85;21002;-82
2021/06/14 06:06:11;;;;;;;0.55;0.55;;;;;;;22.72;52.57;99920.77;1664456;85;21101;-82
2021/06/14 06:08:37;;;;;;;2.50;1.87;;;;;;;22.88;52.09;99914.69;1667818;85;21122;-81
2021/06/14 06:11:05;;;;;;;1.77;0.72;;;;;;;22.78;52.04;99924.27;1649719;85;21121;-82
2021/06/14 06:13:31;;;;;;;1.20;1.20;;;;;;;22.62;52.64;99923.55;1663213;85;21032;-81
2021/06/14 06:15:57;;;;;;;1.10;0.93;;;;;;;22.49;52.85;99928.19;1658655;85;21225;-80
2021/06/14 06:18:24;;;;;;;2.15;1.25;;;;;;;22.30;53.27;99931.53;1665391;85;21028;-79
2021/06/14 06:20:50;;;;;;;2.15;1.77;;;;;;;22.21;53.78;99929.61;1671311;85;21078;-81
2021/06/14 06:23:17;;;;;;;1.98;1.10;;;;;;;22.35;54.02;99944.27;1651218;85;21326;-80
2021/06/14 06:25:46;;;;;;;1.35;1.27;;;;;;;22.45;53.76;99944.25;1663999;85;21063;-81
2021/06/14 06:28:12;;;;;;;2.47;1.22;;;;;;;22.46;53.87;99949.13;1655975;85;21062;-81
2021/06/14 06:30:38;;;;;;;2.67;1.35;;;;;;;22.44;54.07;99934.47;1666825;85;21054;-81
2021/06/14 06:33:05;;;;;;;1.95;1.30;;;;;;;22.60;53.90;99939.28;1660472;85;21068;-80
2021/06/14 06:35:32;;;;;;;2.45;1.00;;;;;;;22.64;52.94;99937.66;1650680;85;21047;-80
2021/06/14 06:37:59;;;;;;;1.00;0.82;;;;;;;22.64;53.32;99947.16;1653373;86;21003;-80
2021/06/14 06:40:25;;;;;;;0.65;0.65;;;;;;;22.58;53.29;99946.09;1666331;86;21038;-81
2021/06/14 06:42:53;;;;;;;1.15;1.15;;;;;;;22.51;53.65;99949.92;1661699;86;21069;-81
2021/06/14 06:45:20;;;;;;;3.10;1.47;;;;;;;22.56;53.66;99950.44;1663127;86;21055;-81
2021/06/14 06:50:05;;;;;;;0.88;0.88;;;;;;;23.11;52.55;99943.14;1806002;78;22747;-81
2021/06/14 06:52:32;;;;;;;3.08;1.50;;;;;;;23.33;51.83;99945.42;1780694;79;20970;-80
2021/06/14 06:54:58;;;;;;;0.53;0.53;;;;;;;23.43;50.98;99946.45;1767303;79;21077;-80
2021/06/14 06:57:25;;;;;;;0.93;0.93;;;;;;;23.48;51.11;99947.22;1736796;80;21367;-81
2021/06/14 06:59:53;;;;;;;4.45;0.85;;;;;;;23.43;51.20;99963.60;1745111;82;21089;-91
2021/06/14 07:02:19;;;;;;;0.90;0.65;;;;;;;23.36;50.83;99969.06;1702790;82;21563;-83
2021/06/14 07:04:45;;;;;;;1.30;1.07;;;;;;;23.15;50.72;99938.48;1710494;82;21052;-83
2021/06/14 07:07:11;;;;;;;1.80;1.20;;;;;;;23.20;51.10;99962.93;1712568;82;21594;-81
2021/06/14 07:09:38;;;;;;;1.00;0.80;;;;;;;23.17;51.65;99966.20;1713434;82;21053;-79
2021/06/14 07:12:07;;;;;;;1.20;0.93;;;;;;;23.11;51.50;99968.14;1714437;81;21635;-80
2021/06/14 07:14:34;;;;;;;2.00;0.95;;;;;;;23.18;51.78;99970.56;1721563;81;21096;-80
2021/06/14 07:17:02;;;;;;;2.40;1.07;;;;;;;23.37;51.57;99978.31;1725302;81;21006;-80
2021/06/14 07:19:28;;;;;;;1.22;1.07;;;;;;;23.61;51.04;99981.14;1732306;81;21048;-80
2021/06/14 07:21:55;;;;;;;1.05;0.80;;;;;;;23.73;50.63;99984.84;1731748;81;21052;-81
2021/06/14 07:24:21;;;;;;;1.02;0.85;;;;;;;23.84;50.91;99983.69;1704257;83;20997;-81
2021/06/14 07:26:47;;;;;;;3.58;0.75;;;;;;;23.86;50.60;99976.61;1686981;83;20992;-80
2021/06/14 07:29:13;;;;;;;1.22;0.72;;;;;;;23.77;51.05;99985.92;1702196;83;21072;-80
2021/06/14 07:31:40;;;;;;;2.25;1.20;;;;;;;23.68;50.58;99979.46;1691066;83;21024;-80
2021/06/14 07:34:08;;;;;;;1.22;1.12;;;;;;;23.52;50.94;99988.27;1687412;81;21008;-79
2021/06/14 07:36:35;;;;;;;2.35;1.02;;;;;;;23.42;50.96;100003.31;1690865;83;21088;-79
2021/06/14 07:39:04;;;;;;;2.00;0.88;;;;;;;23.35;50.61;99999.53;1700819;83;21005;-86
2021/06/14 07:41:32;;;;;;;0.80;0.80;;;;;;;23.28;50.51;99980.83;1697091;83;21610;-80
2021/06/14 07:43:58;;;;;;;2.90;1.15;;;;;;;23.51;50.67;100007.87;1699712;83;22250;-80
2021/06/14 07:46:25;;;;;;;2.30;0.93;;;;;;;23.59;50.52;100008.37;1691120;83;21057;-79
2021/06/14 07:48:51;;;;;;;1.22;0.90;;;;;;;23.59;50.67;100005.09;1693086;83;21110;-79
2021/06/14 07:51:18;;;;;;;0.80;0.53;;;;;;;23.53;50.67;100004.88;1686294;83;21053;-80
2021/06/14 07:53:49;;;;;;;3.05;0.90;;;;;;;23.45;51.27;100004.09;1701086;83;21002;-80
2021/06/14 07:56:14;;;;;;;2.25;1.05;;;;;;;23.29;51.46;100006.91;1681155;83;21060;-80
2021/06/14 07:58:40;;;;;;;1.37;1.37;;;;;;;23.09;52.03;100007.86;1684701;83;21046;-79
2021/06/14 08:01:05;;;;;;;6.62;1.05;;;;;;;22.98;52.63;100006.77;1677126;83;21061;-78
2021/06/14 08:03:33;;;;;;;1.40;1.05;;;;;;;22.95;53.46;100004.08;1681006;84;21066;-76
2021/06/14 08:06:04;;;;;;;2.52;1.82;;;;;;;22.99;53.36;100002.42;1675805;84;21595;-77
2021/06/14 08:08:27;;;;;;;1.65;1.15;;;;;;;22.99;53.31;100000.27;1674193;85;21130;-78
2021/06/14 08:10:55;;;;;;;2.67;1.22;;;;;;;22.94;52.90;100010.59;1686690;84;21026;-79
2021/06/14 08:13:22;;;;;;;1.02;0.70;;;;;;;22.90;53.04;100014.97;1684815;84;21014;-78
2021/06/14 08:15:49;;;;;;;1.87;1.10;;;;;;;22.89;52.98;100011.99;1675069;84;21027;-77
2021/06/14 08:21:08;;;;;;;1.20;1.20;;;;;;;22.89;53.29;100010.63;1670608;84;21173;-78
2021/06/14 08:26:14;;;;;;;2.45;1.80;;;;;;;23.08;54.17;100004.05;1681815;84;21026;-77
2021/06/14 08:28:41;;;;;;;1.22;0.90;;;;;;;23.18;53.59;100011.34;1677894;85;21050;-77
2021/06/14 08:31:09;;;;;;;1.67;1.45;;;;;;;23.26;52.87;100016.17;1674536;84;21323;-77
2021/06/14 08:33:35;;;;;;;2.85;1.10;;;;;;;23.31;52.57;100033.83;1670960;84;21026;-78
2021/06/14 08:36:01;;;;;;;1.87;1.02;;;;;;;23.33;52.75;100020.20;1678681;84;21175;-77
2021/06/14 08:38:27;;;;;;;1.20;1.10;;;;;;;23.35;52.86;100028.64;1685056;83;22157;-78
2021/06/14 08:40:54;;;;;;;1.62;1.52;;;;;;;23.30;52.54;100026.23;1681135;84;21109;-78
2021/06/14 08:43:21;;;;;;;2.25;1.17;;;;;;;23.28;52.77;100048.81;1684934;83;21535;-77
2021/06/14 08:45:51;;;;;;;1.60;1.50;;;;;;;23.33;52.64;100038.44;1678434;83;21009;-78
2021/06/14 08:48:18;;;;;;;3.45;2.00;;;;;;;23.42;52.47;100041.39;1679223;83;21083;-79
2021/06/14 08:50:45;;;;;;;1.60;1.50;;;;;;;23.50;52.36;100044.87;1678408;84;21527;-80
2021/06/14 08:53:11;;;;;;;2.60;1.75;;;;;;;23.53;52.34;100049.75;1674804;83;21156;-79
2021/06/14 08:55:39;;;;;;;0.85;0.75;;;;;;;23.60;52.33;100048.06;1682549;83;21045;-79
2021/06/14 08:58:05;;;;;;;2.17;0.88;;;;;;;23.71;52.36;100060.50;1682579;83;21073;-77
2021/06/14 09:00:34;;;;;;;6.78;1.20;;;;;;;23.84;52.08;100076.22;1685313;83;21021;-79
2021/06/14 09:03:01;;;;;;;0.90;0.90;;;;;;;23.97;51.55;100073.41;1678727;83;21121;-78
2021/06/14 09:05:28;;;;;;;1.72;1.05;;;;;;;24.02;51.18;100067.13;1689414;83;21052;-79
2021/06/14 09:07:55;;;;;;;1.62;1.22;;;;;;;24.02;51.36;100077.47;1686734;83;21046;-76
2021/06/14 09:10:32;;;;;;;3.52;0.72;;;;;;;24.03;51.67;100078.27;1683101;83;21042;-79
2021/06/14 09:13:27;;;;;;;3.50;1.07;;;;;;;24.06;51.53;100085.88;1660213;83;21057;-77
2021/06/14 09:16:08;;;;;;;4.55;1.75;;;;;;;24.09;51.52;100077.95;1667944;84;21124;-78
2021/06/14 09:18:36;;;;;;;2.05;0.80;;;;;;;23.43;51.47;99958.69;1656668;84;21069;-78
2021/06/14 09:21:07;;;;;;;1.17;1.07;;;;;;;24.22;50.92;100086.55;1669997;84;21447;-78
2021/06/14 09:23:51;;;;;;;2.75;1.47;;;;;;;24.15;50.98;100086.89;1666812;83;21025;-77
2021/06/14 09:26:34;;;;;;;0.95;0.90;;;;;;;24.03;51.87;100080.44;1665943;84;21022;-77
2021/06/14 09:29:09;;;;;;;0.88;0.88;;;;;;;24.08;51.35;100087.20;1669267;84;21046;-79
2021/06/14 09:31:44;;;;;;;1.90;0.82;;;;;;;24.09;51.50;100073.04;1670473;84;21049;-77
2021/06/14 09:34:12;;;;;;;1.42;0.88;;;;;;;24.13;51.37;100097.79;1626044;84;21059;-76
2021/06/14 09:36:40;;;;;;;3.90;1.00;;;;;;;24.12;51.12;100092.90;1653977;85;21048;-79
2021/06/14 09:39:17;;;;;;;1.10;0.90;;;;;;;24.16;51.10;100089.87;1638472;85;21058;-77
2021/06/14 09:41:50;;;;;;;0.75;0.75;;;;;;;24.22;51.23;100076.49;1637388;85;21006;-80
2021/06/14 09:44:30;;;;;;;0.70;0.50;;;;;;;24.24;51.29;100101.53;1643562;85;21093;-77
2021/06/14 09:47:01;;;;;;;1.15;1.05;;;;;;;24.22;51.33;100098.28;1689938;83;21056;-79
2021/06/14 09:49:27;;;;;;;2.12;1.10;;;;;;;24.19;51.01;100093.95;1678469;83;21153;-78
2021/06/14 09:51:54;;;;;;;1.10;0.72;;;;;;;24.17;51.72;100095.59;1687103;83;21051;-78
2021/06/14 09:54:35;;;;;;;3.80;0.80;;;;;;;24.13;51.68;100091.81;1677165;83;21510;-79
2021/06/14 09:57:05;;;;;;;2.47;0.57;;;;;;;24.02;52.36;100087.55;1659717;84;21051;-78
2021/06/14 09:59:41;;;;;;;0.78;0.50;;;;;;;23.92;51.67;100095.22;1650607;85;21033;-78
2021/06/14 10:02:18;;;;;;;1.02;0.72;;;;;;;23.92;51.90;100088.97;1710797;82;21504;-80
2021/06/14 10:04:52;;;;;;;0.50;0.50;;;;;;;23.85;51.08;100083.86;1723467;82;20965;-79
2021/06/14 10:07:21;;;;;;;2.52;0.53;;;;;;;23.79;51.25;100079.53;1711815;82;21048;-77
2021/06/14 10:09:51;;;;;;;3.40;0.70;;;;;;;23.79;51.73;100089.05;1721132;82;21006;-78
2021/06/14 10:12:26;;;;;;;1.47;0.50;;;;;;;23.83;51.34;100095.03;1717584;81;21046;-76
2021/06/14 10:15:00;;;;;;;1.12;1.07;;;;;;;23.88;51.39;100087.36;1722710;82;21090;-77
2021/06/14 10:17:36;;;;;;;1.07;0.47;;;;;;;23.88;51.21;100097.72;1710808;82;20982;-78
2021/06/14 10:20:18;;;;;;;0.47;0.40;;;;;;;23.88;50.77;100095.00;1710812;83;21018;-78
2021/06/14 10:22:46;;;;;;;1.82;1.10;;;;;;;23.94;51.07;100088.13;1709895;82;21145;-78
2021/06/14 10:25:15;;;;;;;1.65;0.35;;;;;;;24.05;50.96;100088.33;1660530;85;21017;-77
2021/06/14 10:27:42;;;;;;;2.83;0.95;;;;;;;24.17;50.16;100086.62;1640031;85;21097;-76
2021/06/14 10:30:12;;;;;;;2.25;0.37;;;;;;;24.27;49.59;100092.77;1613461;87;21023;-78
2021/06/14 10:32:43;;;;;;;0.30;0.30;;;;;;;24.36;49.37;100089.45;1634377;86;21070;-79
2021/06/14 10:35:13;;;;;;;0.98;0.50;;;;;;;24.41;49.35;100089.38;1655652;85;21115;-78
2021/06/14 10:37:51;;;;;;;2.25;0.70;;;;;;;24.42;49.71;100093.74;1632304;87;21025;-77
2021/06/14 10:40:26;;;;;;;0.78;0.60;;;;;;;24.43;49.97;100100.80;1625273;87;21122;-78
2021/06/14 10:42:54;;;;;;;9.85;1.00;;;;;;;24.45;49.97;100103.52;1643133;85;21008;-78
2021/06/14 10:45:26;;;;;;;1.87;0.60;;;;;;;24.45;49.70;100098.63;1646312;85;21097;-77
2021/06/14 10:47:56;;;;;;;0.85;0.40;;;;;;;24.46;49.50;100087.98;1642116;86;21069;-76
2021/06/14 10:50:27;;;;;;;0.50;0.40;;;;;;;24.51;49.29;100107.00;1641773;86;21470;-77
2021/06/14 10:52:55;;;;;;;0.35;0.35;;;;;;;24.58;47.60;100083.00;1661863;84;21074;-79
2021/06/14 10:55:32;;;;;;;1.32;0.45;;;;;;;24.63;47.34;100078.83;1630483;86;21633;-76
2021/06/14 10:57:59;;;;;;;0.50;0.42;;;;;;;24.70;47.48;100076.34;1637967;86;21098;-78
2021/06/14 11:00:35;;;;;;;1.22;0.60;;;;;;;24.74;47.92;100087.72;1617667;86;21033;-78
2021/06/14 11:03:11;;;;;;;0.72;0.40;;;;;;;24.76;48.29;100091.53;1639321;86;21021;-78
2021/06/14 11:05:50;;;;;;;4.10;0.35;;;;;;;24.77;47.64;100078.14;1630417;86;21556;-79
2021/06/14 11:08:20;;;;;;;1.45;1.45;;;;;;;24.80;47.85;100082.47;1625277;87;20995;-80
2021/06/14 11:11:06;;;;;;;1.37;0.50;;;;;;;24.87;47.64;100076.69;1635215;87;21504;-76
2021/06/14 11:13:48;;;;;;;2.52;0.90;;;;;;;24.91;47.66;100073.63;1607777;87;21116;-76
2021/06/14 11:16:15;;;;;;;0.70;0.40;;;;;;;24.94;47.66;100081.24;1637672;86;21104;-79
2021/06/14 11:18:44;;;;;;;0.40;0.40;;;;;;;25.00;46.74;100085.52;1640337;87;21064;-78
2021/06/14 11:21:15;;;;;;;0.75;0.57;;;;;;;25.04;47.71;100081.11;1625337;86;21066;-78
2021/06/14 11:23:48;;;;;;;2.42;0.53;;;;;;;25.02;47.29;100081.95;1654480;85;21018;-78
2021/06/14 11:26:28;;;;;;;1.12;0.57;;;;;;;25.02;47.21;100083.31;1643940;85;21078;-76
2021/06/14 11:28:56;;;;;;;0.60;0.55;;;;;;;25.05;47.35;100081.91;1647724;85;21047;-78
2021/06/14 11:31:26;;;;;;;0.45;0.45;;;;;;;25.08;47.47;100075.89;1661920;85;21508;-77
2021/06/14 11:34:01;;;;;;;0.57;0.47;;;;;;;25.14;47.11;100073.34;1663265;84;21118;-79
2021/06/14 11:36:28;;;;;;;0.33;0.30;;;;;;;25.28;47.06;100076.22;1668876;84;21031;-76
2021/06/14 11:38:58;;;;;;;0.70;0.33;;;;;;;25.34;44.86;100080.50;1668769;84;20974;-77
2021/06/14 11:41:34;;;;;;;2.37;0.40;;;;;;;25.32;44.68;100060.88;1664025;84;21087;-77
2021/06/14 11:44:24;;;;;;;;;;;;;;;25.28;45.64;100084.94;1666212;84;21025;-76
2021/06/14 11:46:55;;;;;;;0.65;0.40;;;;;;;25.26;45.69;100087.98;1659017;84;20220;-77
2021/06/14 11:49:34;;;;;;;0.37;0.37;;;;;;;25.18;46.08;100080.39;1661788;84;21081;-77
2021/06/14 11:52:04;;;;;;;1.60;0.50;;;;;;;25.16;46.27;100082.61;1656766;84;21063;-77